RJTR(METAR)
05/26 19:58
METAR RJTR 261058Z AUTO 09006KT 9SM BKN034 21/15 A2982 RMK AO2 SLP098
T02090147 $=
戻る
トップページへ戻る
IMOC Co,.Ltd.